Maria S. Merian — DBBT — position and weather

sailwx.info

Track history (hours):
 
Tides and Currents Weather Stations Pressure Air Temp Water Temp Dewpoint Dewpoint Depression Visibility Wind Speed Wind Dir Waves Ship Positions

Oceanographic research ship Maria S. Merian (Germany)

Last reported at 2020-Jan-14 10:00 UTC. Time now 2020-Jan-20 23:42 UTC.
Position N 13°42' W 059°24'.

Length 94.8 m; beam 19.2 m; draft 6.5 m.

Type: Other ship. MMSI: 211753000.

Wind from 080 at 26 knots

Barometer 1014.5 mb
Air temperature 26.5 ° C
Water temperature 27.4 ° C

Date/timePositionNaut miles runAvg speedWind from/ knotsBaromVisibWave heightAir tempDewpointWater temp
2020-Jan-14 10:00N 13°42' W 059°24'6 6.0 080 / 261014.5 26.5 27.4
2020-Jan-14 09:00N 13°48' W 059°24'8 8.4 080 / 271014.2 26.5 27.3
2020-Jan-14 08:00N 13°54' W 059°18'8 8.4 080 / 281014.0 26.4 27.3
2020-Jan-14 07:00N 14°00' W 059°12'8 8.4 080 / 211014.3 26.2 27.3
2020-Jan-14 06:00N 14°06' W 059°06'8 8.4 070 / 241015.5 24.2 27.2
2020-Jan-14 05:00N 14°12' W 059°00'8 8.4 080 / 221016.0 25.7 27.3
2020-Jan-14 04:00N 14°18' W 058°54'8 8.4 090 / 281016.1 23.4 27.2
2020-Jan-14 03:00N 14°24' W 058°48'8 8.4 070 / 241017.0 24.2 27.2
2020-Jan-14 02:00N 14°30' W 058°42'1313.3 060 / 241017.2 25.7 27.2
2020-Jan-14 01:00N 14°42' W 058°36'1313.3 070 / 261017.3 24.2 27.1
2020-Jan-14 00:00N 14°54' W 058°30'1313.1 070 / 251017.0 26.2 27.0
2020-Jan-13 23:00N 15°00' W 058°18'1313.3 060 / 241016.6 25.7 27.1
2020-Jan-13 22:00N 15°12' W 058°12'8 8.3 070 / 261016.4 25.5 27.0
2020-Jan-13 21:00N 15°18' W 058°06'1313.3 060 / 231016.4 25.9 27.0
2020-Jan-13 20:00N 15°30' W 058°00'1313.0 080 / 181016.2 26.0 26.9
2020-Jan-13 19:00N 15°36' W 057°48'1313.3 060 / 201016.3 25.0 26.8
2020-Jan-13 18:00N 15°48' W 057°42'8 8.3 080 / 241016.8 25.9 26.9
2020-Jan-13 17:00N 15°54' W 057°36'1313.3 080 / 251017.3 25.5 26.7
2020-Jan-13 16:00N 16°06' W 057°30'1313.0 070 / 281018.4 25.7 26.8
2020-Jan-13 15:00N 16°12' W 057°18'1313.0 070 / 251019.4 25.5 26.8
2020-Jan-13 14:00N 16°06' W 057°06'1211.5 080 / 291020.0 24.4 26.9
2020-Jan-13 13:00N 16°06' W 056°54'1211.5 060 / 251019.8 25.0 26.8
2020-Jan-13 12:00N 16°06' W 056°42'1211.5 060 / 251019.5 25.0 26.4
2020-Jan-13 11:00N 16°06' W 056°30'1211.5 070 / 301018.6 25.2 26.9
2020-Jan-13 10:00N 16°06' W 056°18'1717.3 060 / 331017.8 24.7 26.9
2020-Jan-13 09:00N 16°06' W 056°00'1313.0 060 / 291017.5 25.0 26.8
2020-Jan-13 08:00N 16°00' W 055°48'1211.5 060 / 311017.4 25.2 26.7
2020-Jan-13 07:00N 16°00' W 055°36'1211.5 060 / 281017.5 25.4 26.7
2020-Jan-13 06:00N 16°00' W 055°24'1717.3 070 / 261017.8 24.9 26.6
2020-Jan-13 05:00N 16°00' W 055°06'1211.5 060 / 281018.5 25.4 26.6
2020-Jan-13 04:00N 16°00' W 054°54'1211.5 050 / 281019.2 24.5 26.5
2020-Jan-13 03:00N 16°00' W 054°42'1313.0 060 / 271019.4 25.4 26.5
2020-Jan-13 02:00N 15°54' W 054°30'1211.5 060 / 311019.5 25.7 26.6
2020-Jan-13 01:00N 15°54' W 054°18'6 5.8 060 / 291019.7 25.7 26.7
2020-Jan-13 00:00N 15°54' W 054°12'6 5.8 060 / 291019.1 25.9 26.7
2020-Jan-12 23:00N 15°54' W 054°06'1717.3 060 / 251019.3 25.2 26.4
2020-Jan-12 22:00N 15°54' W 053°48'1211.5 050 / 281018.6 25.4 26.5
2020-Jan-12 21:00N 15°54' W 053°36'1211.5 060 / 291018.2 25.0 26.6
2020-Jan-12 20:00N 15°54' W 053°24'1211.5 060 / 201018.1 25.4 26.7
2020-Jan-12 19:00N 15°54' W 053°12'1313.0 060 / 221017.7 25.7 26.5
2020-Jan-12 18:00N 15°48' W 053°00'1211.5 060 / 231017.7 25.2 26.7
2020-Jan-12 17:00N 15°48' W 052°48'1717.3 070 / 191018.2 25.4 26.6
2020-Jan-12 16:00N 15°48' W 052°30'1211.5 070 / 251018.9 25.7 26.4
2020-Jan-12 15:00N 15°48' W 052°18'1211.5 070 / 261019.7 25.9 26.3
2020-Jan-12 14:00N 15°48' W 052°06'1211.5 060 / 281020.0 25.7 26.3
2020-Jan-12 13:00N 15°48' W 051°54'1717.3 060 / 281020.0 25.7 26.2
2020-Jan-12 12:00N 15°48' W 051°36'1211.5 060 / 261019.6 25.5 26.1
2020-Jan-12 11:00N 15°48' W 051°24'1211.5 060 / 271018.8 25.5 26.5
2020-Jan-12 10:00N 15°48' W 051°12'1211.5 060 / 271017.9 25.4 26.2
2020-Jan-12 09:00N 15°48' W 051°00'1211.5 060 / 271017.7 25.2 26.3
2020-Jan-12 08:00N 15°48' W 050°48'1211.5 060 / 291017.5 25.2 26.3
2020-Jan-12 07:00N 15°48' W 050°36'1717.3 060 / 271017.5 24.9 26.2
2020-Jan-12 06:00N 15°48' W 050°18'1211.5 070 / 261017.9 24.7 26.4
2020-Jan-12 05:00N 15°48' W 050°06'1211.5 060 / 251018.3 24.9 26.3
2020-Jan-12 04:00N 15°48' W 049°54'1313.0 060 / 261019.1 24.7 26.0
2020-Jan-12 03:00N 15°42' W 049°42'1211.6 060 / 241019.3 25.2 26.0
2020-Jan-12 02:00N 15°42' W 049°30'1717.3 060 / 251019.4 25.2 26.0
2020-Jan-12 01:00N 15°42' W 049°12'1211.6 060 / 241019.5 25.0 26.0
2020-Jan-12 00:00N 15°42' W 049°00'1211.6 050 / 231019.4 24.9 26.0
2020-Jan-11 23:00N 15°42' W 048°48'1211.6 060 / 241018.7 25.2 25.9
2020-Jan-11 22:00N 15°42' W 048°36'1717.3 060 / 241017.9 25.4 26.2
2020-Jan-11 21:00N 15°42' W 048°18'1211.6 060 / 201017.3 24.9 26.0
2020-Jan-11 20:00N 15°42' W 048°06'1211.6 050 / 231017.0 25.2 26.1
2020-Jan-11 19:00N 15°42' W 047°54'1211.6 060 / 201016.8 25.2 26.1
2020-Jan-11 18:00N 15°42' W 047°42'1818.3 070 / 241016.6 25.2 25.9
2020-Jan-11 17:00N 15°36' W 047°24'1211.6 060 / 261017.0 23.9 26.0
2020-Jan-11 16:00N 15°36' W 047°12'1211.6 070 / 211017.5 25.0 26.0
2020-Jan-11 15:00N 15°36' W 047°00'1211.6 070 / 221018.3 25.0 26.0
2020-Jan-11 14:00N 15°36' W 046°48'1211.6 080 / 231018.8 25.0 26.0
2020-Jan-11 13:00N 15°36' W 046°36'1818.3 070 / 221019.0 24.9 25.9
2020-Jan-11 12:00N 15°30' W 046°18'1211.6 070 / 191018.9 24.7 25.9
2020-Jan-11 11:00N 15°30' W 046°06'1211.6 060 / 211018.3 24.7 25.8
2020-Jan-11 10:00N 15°30' W 045°54'6 6.0 070 / 211017.5 24.4 25.7
2020-Jan-11 09:00N 15°36' W 045°54'6 5.8 060 / 221016.8 24.2 25.9
2020-Jan-11 08:00N 15°36' W 046°00'1211.6 060 / 161016.9 23.4 25.9
2020-Jan-11 07:00N 15°36' W 046°12'6 5.8 070 / 241016.8 24.4 25.9
2020-Jan-11 06:00N 15°36' W 046°18'1211.6 060 / 281016.8 24.5 25.9
2020-Jan-11 05:00N 15°36' W 046°30'1313.0 070 / 241017.2 24.7 25.9
2020-Jan-11 04:00N 15°42' W 046°42'1211.6 070 / 231017.7 24.9 26.0
2020-Jan-11 03:00N 15°42' W 046°54'6 5.8 050 / 201018.3 23.7 26.1
2020-Jan-11 02:00N 15°42' W 047°00'1211.6 060 / 251018.3 24.2 26.0
2020-Jan-11 01:00N 15°42' W 047°12'1211.6 060 / 241018.1 25.0 26.1
2020-Jan-11 00:00N 15°42' W 047°24'6 5.8 060 / 261017.8 25.2 26.1
2020-Jan-10 23:00N 15°42' W 047°30'2311.6 060 / 201017.8 25.2 25.9
2020-Jan-10 21:00N 15°42' W 047°54'1211.6 060 / 211016.8 25.2 26.0
2020-Jan-10 20:00N 15°42' W 048°06'6 5.8 070 / 201016.5 25.4 26.0
2020-Jan-10 19:00N 15°42' W 048°12'1211.6 070 / 181016.4 25.7 26.3
2020-Jan-10 18:00N 15°42' W 048°24'1313.0 070 / 191016.3 25.7 26.4
2020-Jan-10 17:00N 15°48' W 048°36'6 5.8 070 / 171016.8 25.5 26.1
2020-Jan-10 16:00N 15°48' W 048°42'1211.5 070 / 151017.8 24.7 26.0
2020-Jan-10 15:00N 15°48' W 048°54'1211.5 070 / 221018.6 23.5 26.0
2020-Jan-10 14:00N 15°48' W 049°06'1211.5 060 / 221018.8 25.0 26.0
2020-Jan-10 13:00N 15°48' W 049°18'6 5.8 070 / 221018.9 25.0 26.0
2020-Jan-10 12:00N 15°48' W 049°24'1211.5 060 / 241018.7 24.9 26.0
2020-Jan-10 11:00N 15°48' W 049°36'1211.5 060 / 231018.1 25.2 26.2
2020-Jan-10 10:00N 15°48' W 049°48'6 5.8 050 / 251017.4 24.9 26.1
2020-Jan-10 09:00N 15°48' W 049°54'1313.0 050 / 221017.1 24.4 26.0
2020-Jan-10 08:00N 15°54' W 050°06'1211.5 040 / 241016.9 24.4 26.2
2020-Jan-10 07:00N 15°54' W 050°18'6 5.8 040 / 251017.3 24.7 26.5
2020-Jan-10 06:00N 15°54' W 050°24'1211.5 040 / 301017.7 25.0 26.6
2020-Jan-10 05:00N 15°54' W 050°36'1211.5 050 / 251018.6 23.9 26.7
2020-Jan-10 04:00N 15°54' W 050°48'6 5.8 040 / 281018.7 25.7 26.6
2020-Jan-10 03:00N 15°54' W 050°54'1211.5 050 / 291018.9 25.7 26.5
2020-Jan-10 02:00N 15°54' W 051°06'1211.5 050 / 271019.5 25.7 26.3
2020-Jan-10 01:00N 15°54' W 051°18'6 5.8 050 / 271019.5 25.9 26.3
2020-Jan-10 00:00N 15°54' W 051°24'1211.5 050 / 321019.0 25.9 26.4
2020-Jan-09 23:00N 15°54' W 051°36'1211.5 050 / 281018.8 26.2 26.5
2020-Jan-09 22:00N 15°54' W 051°48'6 5.8 060 / 271018.3 26.0 26.2
2020-Jan-09 21:00N 15°54' W 051°54'1211.5 060 / 281017.7 26.0 26.3
2020-Jan-09 20:00N 15°54' W 052°06'1211.5 060 / 271017.3 26.2 26.4
2020-Jan-09 19:00N 15°54' W 052°18'6 5.8 070 / 251017.3 26.4 26.5
2020-Jan-09 18:00N 15°54' W 052°24'1211.5 070 / 241017.3 26.4 26.4
2020-Jan-09 17:00N 15°54' W 052°36'1211.5 070 / 251017.8 26.4 26.8
2020-Jan-09 16:00N 15°54' W 052°48'1211.5 070 / 251018.9 26.4 26.7
2020-Jan-09 15:00N 15°54' W 053°00'6 5.8 070 / 251019.5 26.2 26.7
2020-Jan-09 14:00N 15°54' W 053°06'1313.0 060 / 251019.8 25.9 26.7
2020-Jan-09 13:00N 16°00' W 053°18'6 5.8 070 / 281019.8 26.7 26.7
2020-Jan-09 12:00N 16°00' W 053°24'1211.5 070 / 321019.6 25.7 26.6
2020-Jan-09 11:00N 16°00' W 053°36'1211.5 060 / 321018.4 25.5 26.5
2020-Jan-09 10:00N 16°00' W 053°48'6 5.8 060 / 231018.1 25.7 26.6
2020-Jan-09 09:00N 16°00' W 053°54'1211.5 070 / 291017.2 25.9 26.7
2020-Jan-09 08:00N 16°00' W 054°06'1211.5 070 / 271016.9 25.9 26.6
2020-Jan-09 07:00N 16°00' W 054°18'6 5.8 070 / 291017.0 26.0 26.6
2020-Jan-09 06:00N 16°00' W 054°24'1211.5 070 / 281017.2 26.2 26.7
2020-Jan-09 05:00N 16°00' W 054°36'1313.0 070 / 261017.8 26.2 26.7
2020-Jan-09 04:00N 16°06' W 054°48'6 5.8 070 / 281018.6 25.4 26.6
2020-Jan-09 03:00N 16°06' W 054°54'1211.5 060 / 271019.0 25.9 26.8
2020-Jan-09 02:00N 16°06' W 055°06'1211.5 060 / 271019.2 26.4 26.9
2020-Jan-09 01:00N 16°06' W 055°18'6 5.8 060 / 271019.1 26.4 27.0
2020-Jan-09 00:00N 16°06' W 055°24'1211.5 070 / 291018.7 26.7 27.0
2020-Jan-08 23:00N 16°06' W 055°36'1211.5 060 / 251018.2 26.4 27.0
2020-Jan-08 22:00N 16°06' W 055°48'8 8.3 060 / 241017.8 26.4 26.9
2020-Jan-08 21:00N 16°12' W 055°54'1211.5 070 / 221017.6 26.7 27.0
2020-Jan-08 20:00N 16°12' W 056°06'1211.5 070 / 231017.3 26.7 26.9
2020-Jan-08 19:00N 16°12' W 056°18'6 5.8 080 / 221017.1 26.9 26.9
2020-Jan-08 18:00N 16°12' W 056°24'1211.5 070 / 241017.1 26.9 26.9
2020-Jan-08 17:00N 16°12' W 056°36'1211.5 080 / 211017.8 26.9 26.9
2020-Jan-08 16:00N 16°12' W 056°48'1211.5 090 / 201018.6 27.0 27.1
2020-Jan-08 15:00N 16°12' W 057°00'6 5.8 080 / 201019.6 26.7 27.0
2020-Jan-08 14:00N 16°12' W 057°06'1313.0 080 / 221019.9 26.7 27.0
2020-Jan-08 13:00N 16°18' W 057°18'1211.5 080 / 261020.0 26.4 27.1
2020-Jan-08 12:00N 16°18' W 057°30'6 6.0 080 / 251019.7 26.4 26.9
2020-Jan-08 11:00N 16°24' W 057°30'1211.5 080 / 241019.1 26.4 27.0
2020-Jan-08 10:00N 16°24' W 057°18'1313.0 110 / 121018.3 24.9 26.9
2020-Jan-08 09:00N 16°18' W 057°06'6 5.8 140 / 211017.7 23.9 27.0
2020-Jan-08 08:00N 16°18' W 057°00'1211.5 080 / 111017.4 23.7 27.0
2020-Jan-08 07:00N 16°18' W 056°48'1211.5 110 / 241017.4 23.4 27.0
2020-Jan-08 06:00N 16°18' W 056°36'1211.5 070 / 231017.5 25.7 26.9
2020-Jan-08 05:00N 16°18' W 056°24'6 5.8 080 / 211018.0 26.2 26.9
2020-Jan-08 04:00N 16°18' W 056°18'1211.5 080 / 211018.5 26.4 26.9
2020-Jan-08 03:00N 16°18' W 056°06'1313.0 070 / 211019.0 26.0 26.9
2020-Jan-08 02:00N 16°12' W 055°54'6 5.8 070 / 201019.1 25.9 26.9
2020-Jan-08 01:00N 16°12' W 055°48'1211.5 070 / 221019.3 26.2 26.9
2020-Jan-08 00:00N 16°12' W 055°36'1211.5 070 / 151019.0 26.2 26.9
2020-Jan-07 23:00N 16°12' W 055°24'1211.5 070 / 181018.5 26.2 26.9
2020-Jan-07 22:00N 16°12' W 055°12'6 5.8 070 / 151017.9 26.2 27.2
2020-Jan-07 21:00N 16°12' W 055°06'1211.5 070 / 131017.3 26.2 27.0
2020-Jan-07 20:00N 16°12' W 054°54'1211.5 090 / 141017.1 27.0 26.9
2020-Jan-07 19:00N 16°12' W 054°42'1313.0 080 / 141016.7 26.7 27.0
2020-Jan-07 18:00N 16°06' W 054°30'6 5.8 090 / 131016.6 26.5 26.7
2020-Jan-07 17:00N 16°06' W 054°24'1211.5 100 / 131017.0 27.7 27.0
2020-Jan-07 16:00N 16°06' W 054°12'1211.5 090 / 151017.7 26.5 27.1
2020-Jan-07 15:00N 16°06' W 054°00'6 5.8 080 / 131018.5 26.2 26.6
2020-Jan-07 14:00N 16°06' W 053°54'1211.5 090 / 141019.0 26.9 26.6
2020-Jan-07 13:00N 16°06' W 053°42'1211.5 090 / 131019.1 26.7 26.8
2020-Jan-07 12:00N 16°06' W 053°30'1211.5 100 / 131018.6 27.5 26.9
2020-Jan-07 11:00N 16°06' W 053°18'6 5.8 100 / 121017.7 25.9 26.6
2020-Jan-07 10:00N 16°06' W 053°12'1211.5 110 / 131017.0 25.4 26.6
2020-Jan-07 09:00N 16°06' W 053°00'1211.5 110 / 121016.3 25.4 26.9
2020-Jan-07 08:00N 16°06' W 052°48'8 8.3 120 / 141016.0 25.4 26.5
2020-Jan-07 07:00N 16°00' W 052°42'1211.5 110 / 121015.9 25.2 26.7
2020-Jan-07 06:00N 16°00' W 052°30'1211.5 110 / 141016.0 25.2 26.7
2020-Jan-07 05:00N 16°00' W 052°18'1211.5 110 / 131016.2 25.2 26.6
2020-Jan-07 04:00N 16°00' W 052°06'6 5.8 110 / 131016.8 25.4 26.4
2020-Jan-07 03:00N 16°00' W 052°00'1211.5 100 / 111016.9 25.2 26.5
2020-Jan-07 02:00N 16°00' W 051°48'1211.5 090 / 131017.1 25.4 26.5
2020-Jan-07 01:00N 16°00' W 051°36'1211.5 100 / 111017.2 25.4 26.3
2020-Jan-07 00:00N 16°00' W 051°24'6 5.8 090 / 121017.3 25.4 26.2
2020-Jan-06 23:00N 16°00' W 051°18'1211.5 090 / 91016.9 25.2 26.2
2020-Jan-06 22:00N 16°00' W 051°06'1211.5 090 / 101016.2 25.4 26.4
2020-Jan-06 21:00N 16°00' W 050°54'6 5.8 090 / 101015.5 25.9 26.5
2020-Jan-06 20:00N 16°00' W 050°48'1211.5 080 / 81014.9 26.9 26.4
2020-Jan-06 19:00N 16°00' W 050°36'1211.5 110 / 71014.7 27.2 26.6
2020-Jan-06 18:00N 16°00' W 050°24'1211.5 110 / 61014.4 26.2 26.7
2020-Jan-06 17:00N 16°00' W 050°12'8 8.3 120 / 71014.7 26.2 26.7
2020-Jan-06 16:00N 15°54' W 050°06'1211.5 110 / 61015.3 26.2 26.9
2020-Jan-06 15:00N 15°54' W 049°54'1211.5 130 / 61016.0 25.9 26.7
2020-Jan-06 14:00N 15°54' W 049°42'1211.5 120 / 81016.6 25.7 26.6
2020-Jan-06 13:00N 15°54' W 049°30'6 5.8 130 / 81016.9 25.7 26.0
2020-Jan-06 12:00N 15°54' W 049°24'1211.5 130 / 71016.8 26.2 26.2
2020-Jan-06 11:00N 15°54' W 049°12'1211.5 110 / 71015.9 25.2 26.1
2020-Jan-06 10:00N 15°54' W 049°00'6 5.8 080 / 51014.7 24.7 26.0
2020-Jan-06 09:00N 15°54' W 048°54'1211.5 080 / 81014.1 24.2 26.0
2020-Jan-06 08:00N 15°54' W 048°42'1313.0 100 / 101014.0 23.9 26.0
2020-Jan-06 07:00N 15°48' W 048°30'1211.5 080 / 61013.7 23.9 26.0
2020-Jan-06 06:00N 15°48' W 048°18'6 5.8 180 / 111013.7 23.7 26.0
2020-Jan-06 05:00N 15°48' W 048°12'1211.5 120 / 101014.1 24.7 26.0
2020-Jan-06 04:00N 15°48' W 048°00'1211.5 110 / 71014.7 24.5 26.3
2020-Jan-06 03:00N 15°48' W 047°48'1211.5 080 / 101015.0 24.4 26.3
2020-Jan-06 02:00N 15°48' W 047°36'6 5.8 090 / 121015.4 23.7 26.3
2020-Jan-06 01:00N 15°48' W 047°30'1211.5 090 / 111015.3 24.7 26.1
2020-Jan-06 00:00N 15°48' W 047°18'1211.5 080 / 131015.4 24.5 26.3
2020-Jan-05 23:00N 15°48' W 047°06'6 5.8 070 / 141015.0 24.4 26.3
2020-Jan-05 22:00N 15°48' W 047°00'1313.0 080 / 91014.6 24.4 26.3
2020-Jan-05 21:00N 15°42' W 046°48'1211.6 040 / 71014.1 23.2 26.2
2020-Jan-05 20:00N 15°42' W 046°36'6 5.8 100 / 101013.5 25.4 26.3
2020-Jan-05 19:00N 15°42' W 046°30'1211.6 090 / 121013.5 25.4 26.2
2020-Jan-05 18:00N 15°42' W 046°18'1211.6 080 / 111013.3 25.4 26.3
2020-Jan-05 17:00N 15°42' W 046°06'1313.0 080 / 121013.7 25.2 26.2
2020-Jan-05 16:00N 15°36' W 045°54'6 5.8 090 / 121014.5 25.4 26.1
2020-Jan-05 15:00N 15°36' W 045°48'1211.6 070 / 111015.1 24.9 26.1
2020-Jan-05 14:00N 15°36' W 045°36'1211.6 090 / 101015.8 25.0 26.2
2020-Jan-05 13:00N 15°36' W 045°24'6 5.8 080 / 91016.2 24.9 26.2
2020-Jan-05 12:00N 15°36' W 045°18'1211.6 080 / 91016.1 24.9 25.9
2020-Jan-05 11:00N 15°36' W 045°06'1211.6 070 / 61015.6 24.7 25.9
2020-Jan-05 10:00N 15°36' W 044°54'1211.6 110 / 41014.4 24.2 25.9
2020-Jan-05 09:00N 15°36' W 044°42'8 8.3 090 / 71013.7 23.7 26.0
2020-Jan-05 08:00N 15°30' W 044°36'1211.6 130 / 91013.4 23.9 26.1
2020-Jan-05 07:00N 15°30' W 044°24'1211.6 150 / 111013.2 23.7 26.1
2020-Jan-05 06:00N 15°30' W 044°12'1211.6 140 / 121013.1 23.7 25.9
2020-Jan-05 05:00N 15°30' W 044°00'6 5.8 110 / 111013.9 23.4 25.9
2020-Jan-05 04:00N 15°30' W 043°54'1211.6 100 / 131014.7 22.9 26.1
2020-Jan-05 03:00N 15°30' W 043°42'1211.6 090 / 141015.4 22.5 25.7
2020-Jan-05 02:00N 15°30' W 043°30'8 8.3 070 / 141015.9 22.0 25.8
2020-Jan-05 01:00N 15°24' W 043°24'8 8.3 050 / 161016.7 21.7 25.8
2020-Jan-05 00:00N 15°30' W 043°18'1211.6 050 / 231016.7 21.5 25.8
2020-Jan-04 23:00N 15°30' W 043°30'8 8.3 040 / 291016.1 21.5 25.8
2020-Jan-04 22:00N 15°36' W 043°36'1211.6 030 / 331015.3 21.2 25.7
2020-Jan-04 21:00N 15°36' W 043°48'1211.6 040 / 331014.6 21.4 26.1
2020-Jan-04 20:00N 15°36' W 044°00'1211.6 040 / 331014.0 21.4 25.7
2020-Jan-04 19:00N 15°36' W 044°12'6 5.8 040 / 211014.0 21.5 25.8
2020-Jan-04 18:00N 15°36' W 044°18'1211.6 180 / 101013.5 25.4 25.9
2020-Jan-04 17:00N 15°36' W 044°30'1211.6 190 / 161013.4 25.2 26.2
2020-Jan-04 16:00N 15°36' W 044°42'8 8.3 200 / 161013.9 25.5 26.2
2020-Jan-04 15:00N 15°42' W 044°48'1211.6 190 / 161015.1 25.4 26.1
2020-Jan-04 14:00N 15°42' W 045°00'1211.6 190 / 141015.8 25.5 26.0
2020-Jan-04 13:00N 15°42' W 045°12'1211.6 180 / 151016.2 25.5 26.0
2020-Jan-04 12:00N 15°42' W 045°24'6 5.8 180 / 151016.4 25.4 26.2
2020-Jan-04 11:00N 15°42' W 045°30'1211.6 160 / 141016.0 24.9 26.1
2020-Jan-04 10:00N 15°42' W 045°42'   170 / 121015.6 24.7 26.0
Track history (hours):
 
Tides and Currents Weather Stations Pressure Air Temp Water Temp Dewpoint Dewpoint Depression Visibility Wind Speed Wind Dir Waves Ship Positions

Oceanographic research ship Maria S. Merian (Germany)

Last reported at 2020-Jan-14 10:00 UTC. Time now 2020-Jan-20 23:42 UTC.
Position N 13°42' W 059°24'.

Length 94.8 m; beam 19.2 m; draft 6.5 m.

Type: Other ship. MMSI: 211753000.

Wind from 080 at 26 knots

Barometer 1014.5 mb
Air temperature 26.5 ° C
Water temperature 27.4 ° C

Date/timePositionNaut miles runAvg speedWind from/ knotsBaromVisibWave heightAir tempDewpointWater temp
2020-Jan-14 10:00N 13°42' W 059°24'6 6.0 080 / 261014.5 26.5 27.4
2020-Jan-14 09:00N 13°48' W 059°24'8 8.4 080 / 271014.2 26.5 27.3
2020-Jan-14 08:00N 13°54' W 059°18'8 8.4 080 / 281014.0 26.4 27.3
2020-Jan-14 07:00N 14°00' W 059°12'8 8.4 080 / 211014.3 26.2 27.3
2020-Jan-14 06:00N 14°06' W 059°06'8 8.4 070 / 241015.5 24.2 27.2
2020-Jan-14 05:00N 14°12' W 059°00'8 8.4 080 / 221016.0 25.7 27.3
2020-Jan-14 04:00N 14°18' W 058°54'8 8.4 090 / 281016.1 23.4 27.2
2020-Jan-14 03:00N 14°24' W 058°48'8 8.4 070 / 241017.0 24.2 27.2
2020-Jan-14 02:00N 14°30' W 058°42'1313.3 060 / 241017.2 25.7 27.2
2020-Jan-14 01:00N 14°42' W 058°36'1313.3 070 / 261017.3 24.2 27.1
2020-Jan-14 00:00N 14°54' W 058°30'1313.1 070 / 251017.0 26.2 27.0
2020-Jan-13 23:00N 15°00' W 058°18'1313.3 060 / 241016.6 25.7 27.1
2020-Jan-13 22:00N 15°12' W 058°12'8 8.3 070 / 261016.4 25.5 27.0
2020-Jan-13 21:00N 15°18' W 058°06'1313.3 060 / 231016.4 25.9 27.0
2020-Jan-13 20:00N 15°30' W 058°00'1313.0 080 / 181016.2 26.0 26.9
2020-Jan-13 19:00N 15°36' W 057°48'1313.3 060 / 201016.3 25.0 26.8
2020-Jan-13 18:00N 15°48' W 057°42'8 8.3 080 / 241016.8 25.9 26.9
2020-Jan-13 17:00N 15°54' W 057°36'1313.3 080 / 251017.3 25.5 26.7
2020-Jan-13 16:00N 16°06' W 057°30'1313.0 070 / 281018.4 25.7 26.8
2020-Jan-13 15:00N 16°12' W 057°18'1313.0 070 / 251019.4 25.5 26.8
2020-Jan-13 14:00N 16°06' W 057°06'1211.5 080 / 291020.0 24.4 26.9
2020-Jan-13 13:00N 16°06' W 056°54'1211.5 060 / 251019.8 25.0 26.8
2020-Jan-13 12:00N 16°06' W 056°42'1211.5 060 / 251019.5 25.0 26.4
2020-Jan-13 11:00N 16°06' W 056°30'1211.5 070 / 301018.6 25.2 26.9
2020-Jan-13 10:00N 16°06' W 056°18'1717.3 060 / 331017.8 24.7 26.9
2020-Jan-13 09:00N 16°06' W 056°00'1313.0 060 / 291017.5 25.0 26.8
2020-Jan-13 08:00N 16°00' W 055°48'1211.5 060 / 311017.4 25.2 26.7
2020-Jan-13 07:00N 16°00' W 055°36'1211.5 060 / 281017.5 25.4 26.7
2020-Jan-13 06:00N 16°00' W 055°24'1717.3 070 / 261017.8 24.9 26.6
2020-Jan-13 05:00N 16°00' W 055°06'1211.5 060 / 281018.5 25.4 26.6
2020-Jan-13 04:00N 16°00' W 054°54'1211.5 050 / 281019.2 24.5 26.5
2020-Jan-13 03:00N 16°00' W 054°42'1313.0 060 / 271019.4 25.4 26.5
2020-Jan-13 02:00N 15°54' W 054°30'1211.5 060 / 311019.5 25.7 26.6
2020-Jan-13 01:00N 15°54' W 054°18'6 5.8 060 / 291019.7 25.7 26.7
2020-Jan-13 00:00N 15°54' W 054°12'6 5.8 060 / 291019.1 25.9 26.7
2020-Jan-12 23:00N 15°54' W 054°06'1717.3 060 / 251019.3 25.2 26.4
2020-Jan-12 22:00N 15°54' W 053°48'1211.5 050 / 281018.6 25.4 26.5
2020-Jan-12 21:00N 15°54' W 053°36'1211.5 060 / 291018.2 25.0 26.6
2020-Jan-12 20:00N 15°54' W 053°24'1211.5 060 / 201018.1 25.4 26.7
2020-Jan-12 19:00N 15°54' W 053°12'1313.0 060 / 221017.7 25.7 26.5
2020-Jan-12 18:00N 15°48' W 053°00'1211.5 060 / 231017.7 25.2 26.7
2020-Jan-12 17:00N 15°48' W 052°48'1717.3 070 / 191018.2 25.4 26.6
2020-Jan-12 16:00N 15°48' W 052°30'1211.5 070 / 251018.9 25.7 26.4
2020-Jan-12 15:00N 15°48' W 052°18'1211.5 070 / 261019.7 25.9 26.3
2020-Jan-12 14:00N 15°48' W 052°06'1211.5 060 / 281020.0 25.7 26.3
2020-Jan-12 13:00N 15°48' W 051°54'1717.3 060 / 281020.0 25.7 26.2
2020-Jan-12 12:00N 15°48' W 051°36'1211.5 060 / 261019.6 25.5 26.1
2020-Jan-12 11:00N 15°48' W 051°24'1211.5 060 / 271018.8 25.5 26.5
2020-Jan-12 10:00N 15°48' W 051°12'1211.5 060 / 271017.9 25.4 26.2
2020-Jan-12 09:00N 15°48' W 051°00'1211.5 060 / 271017.7 25.2 26.3
2020-Jan-12 08:00N 15°48' W 050°48'1211.5 060 / 291017.5 25.2 26.3
2020-Jan-12 07:00N 15°48' W 050°36'1717.3 060 / 271017.5 24.9 26.2
2020-Jan-12 06:00N 15°48' W 050°18'1211.5 070 / 261017.9 24.7 26.4
2020-Jan-12 05:00N 15°48' W 050°06'1211.5 060 / 251018.3 24.9 26.3
2020-Jan-12 04:00N 15°48' W 049°54'1313.0 060 / 261019.1 24.7 26.0
2020-Jan-12 03:00N 15°42' W 049°42'1211.6 060 / 241019.3 25.2 26.0
2020-Jan-12 02:00N 15°42' W 049°30'1717.3 060 / 251019.4 25.2 26.0
2020-Jan-12 01:00N 15°42' W 049°12'1211.6 060 / 241019.5 25.0 26.0
2020-Jan-12 00:00N 15°42' W 049°00'1211.6 050 / 231019.4 24.9 26.0
2020-Jan-11 23:00N 15°42' W 048°48'1211.6 060 / 241018.7 25.2 25.9
2020-Jan-11 22:00N 15°42' W 048°36'1717.3 060 / 241017.9 25.4 26.2
2020-Jan-11 21:00N 15°42' W 048°18'1211.6 060 / 201017.3 24.9 26.0
2020-Jan-11 20:00N 15°42' W 048°06'1211.6 050 / 231017.0 25.2 26.1
2020-Jan-11 19:00N 15°42' W 047°54'1211.6 060 / 201016.8 25.2 26.1
2020-Jan-11 18:00N 15°42' W 047°42'1818.3 070 / 241016.6 25.2 25.9
2020-Jan-11 17:00N 15°36' W 047°24'1211.6 060 / 261017.0 23.9 26.0
2020-Jan-11 16:00N 15°36' W 047°12'1211.6 070 / 211017.5 25.0 26.0
2020-Jan-11 15:00N 15°36' W 047°00'1211.6 070 / 221018.3 25.0 26.0
2020-Jan-11 14:00N 15°36' W 046°48'1211.6 080 / 231018.8 25.0 26.0
2020-Jan-11 13:00N 15°36' W 046°36'1818.3 070 / 221019.0 24.9 25.9
2020-Jan-11 12:00N 15°30' W 046°18'1211.6 070 / 191018.9 24.7 25.9
2020-Jan-11 11:00N 15°30' W 046°06'1211.6 060 / 211018.3 24.7 25.8
2020-Jan-11 10:00N 15°30' W 045°54'6 6.0 070 / 211017.5 24.4 25.7
2020-Jan-11 09:00N 15°36' W 045°54'6 5.8 060 / 221016.8 24.2 25.9
2020-Jan-11 08:00N 15°36' W 046°00'1211.6 060 / 161016.9 23.4 25.9
2020-Jan-11 07:00N 15°36' W 046°12'6 5.8 070 / 241016.8 24.4 25.9
2020-Jan-11 06:00N 15°36' W 046°18'1211.6 060 / 281016.8 24.5 25.9
2020-Jan-11 05:00N 15°36' W 046°30'1313.0 070 / 241017.2 24.7 25.9
2020-Jan-11 04:00N 15°42' W 046°42'1211.6 070 / 231017.7 24.9 26.0
2020-Jan-11 03:00N 15°42' W 046°54'6 5.8 050 / 201018.3 23.7 26.1
2020-Jan-11 02:00N 15°42' W 047°00'1211.6 060 / 251018.3 24.2 26.0
2020-Jan-11 01:00N 15°42' W 047°12'1211.6 060 / 241018.1 25.0 26.1
2020-Jan-11 00:00N 15°42' W 047°24'6 5.8 060 / 261017.8 25.2 26.1
2020-Jan-10 23:00N 15°42' W 047°30'2311.6 060 / 201017.8 25.2 25.9
2020-Jan-10 21:00N 15°42' W 047°54'1211.6 060 / 211016.8 25.2 26.0
2020-Jan-10 20:00N 15°42' W 048°06'6 5.8 070 / 201016.5 25.4 26.0
2020-Jan-10 19:00N 15°42' W 048°12'1211.6 070 / 181016.4 25.7 26.3
2020-Jan-10 18:00N 15°42' W 048°24'1313.0 070 / 191016.3 25.7 26.4
2020-Jan-10 17:00N 15°48' W 048°36'6 5.8 070 / 171016.8 25.5 26.1
2020-Jan-10 16:00N 15°48' W 048°42'1211.5 070 / 151017.8 24.7 26.0
2020-Jan-10 15:00N 15°48' W 048°54'1211.5 070 / 221018.6 23.5 26.0
2020-Jan-10 14:00N 15°48' W 049°06'1211.5 060 / 221018.8 25.0 26.0
2020-Jan-10 13:00N 15°48' W 049°18'6 5.8 070 / 221018.9 25.0 26.0
2020-Jan-10 12:00N 15°48' W 049°24'1211.5 060 / 241018.7 24.9 26.0
2020-Jan-10 11:00N 15°48' W 049°36'1211.5 060 / 231018.1 25.2 26.2
2020-Jan-10 10:00N 15°48' W 049°48'6 5.8 050 / 251017.4 24.9 26.1
2020-Jan-10 09:00N 15°48' W 049°54'1313.0 050 / 221017.1 24.4 26.0
2020-Jan-10 08:00N 15°54' W 050°06'1211.5 040 / 241016.9 24.4 26.2
2020-Jan-10 07:00N 15°54' W 050°18'6 5.8 040 / 251017.3 24.7 26.5
2020-Jan-10 06:00N 15°54' W 050°24'1211.5 040 / 301017.7 25.0 26.6
2020-Jan-10 05:00N 15°54' W 050°36'1211.5 050 / 251018.6 23.9 26.7
2020-Jan-10 04:00N 15°54' W 050°48'6 5.8 040 / 281018.7 25.7 26.6
2020-Jan-10 03:00N 15°54' W 050°54'1211.5 050 / 291018.9 25.7 26.5
2020-Jan-10 02:00N 15°54' W 051°06'1211.5 050 / 271019.5 25.7 26.3
2020-Jan-10 01:00N 15°54' W 051°18'6 5.8 050 / 271019.5 25.9 26.3
2020-Jan-10 00:00N 15°54' W 051°24'1211.5 050 / 321019.0 25.9 26.4
2020-Jan-09 23:00N 15°54' W 051°36'1211.5 050 / 281018.8 26.2 26.5
2020-Jan-09 22:00N 15°54' W 051°48'6 5.8 060 / 271018.3 26.0 26.2
2020-Jan-09 21:00N 15°54' W 051°54'1211.5 060 / 281017.7 26.0 26.3
2020-Jan-09 20:00N 15°54' W 052°06'1211.5 060 / 271017.3 26.2 26.4
2020-Jan-09 19:00N 15°54' W 052°18'6 5.8 070 / 251017.3 26.4 26.5
2020-Jan-09 18:00N 15°54' W 052°24'1211.5 070 / 241017.3 26.4 26.4
2020-Jan-09 17:00N 15°54' W 052°36'1211.5 070 / 251017.8 26.4 26.8
2020-Jan-09 16:00N 15°54' W 052°48'1211.5 070 / 251018.9 26.4 26.7
2020-Jan-09 15:00N 15°54' W 053°00'6 5.8 070 / 251019.5 26.2 26.7
2020-Jan-09 14:00N 15°54' W 053°06'1313.0 060 / 251019.8 25.9 26.7
2020-Jan-09 13:00N 16°00' W 053°18'6 5.8 070 / 281019.8 26.7 26.7
2020-Jan-09 12:00N 16°00' W 053°24'1211.5 070 / 321019.6 25.7 26.6
2020-Jan-09 11:00N 16°00' W 053°36'1211.5 060 / 321018.4 25.5 26.5
2020-Jan-09 10:00N 16°00' W 053°48'6 5.8 060 / 231018.1 25.7 26.6
2020-Jan-09 09:00N 16°00' W 053°54'1211.5 070 / 291017.2 25.9 26.7
2020-Jan-09 08:00N 16°00' W 054°06'1211.5 070 / 271016.9 25.9 26.6
2020-Jan-09 07:00N 16°00' W 054°18'6 5.8 070 / 291017.0 26.0 26.6
2020-Jan-09 06:00N 16°00' W 054°24'1211.5 070 / 281017.2 26.2 26.7
2020-Jan-09 05:00N 16°00' W 054°36'1313.0 070 / 261017.8 26.2 26.7
2020-Jan-09 04:00N 16°06' W 054°48'6 5.8 070 / 281018.6 25.4 26.6
2020-Jan-09 03:00N 16°06' W 054°54'1211.5 060 / 271019.0 25.9 26.8
2020-Jan-09 02:00N 16°06' W 055°06'1211.5 060 / 271019.2 26.4 26.9
2020-Jan-09 01:00N 16°06' W 055°18'6 5.8 060 / 271019.1 26.4 27.0
2020-Jan-09 00:00N 16°06' W 055°24'1211.5 070 / 291018.7 26.7 27.0
2020-Jan-08 23:00N 16°06' W 055°36'1211.5 060 / 251018.2 26.4 27.0
2020-Jan-08 22:00N 16°06' W 055°48'8 8.3 060 / 241017.8 26.4 26.9
2020-Jan-08 21:00N 16°12' W 055°54'1211.5 070 / 221017.6 26.7 27.0
2020-Jan-08 20:00N 16°12' W 056°06'1211.5 070 / 231017.3 26.7 26.9
2020-Jan-08 19:00N 16°12' W 056°18'6 5.8 080 / 221017.1 26.9 26.9
2020-Jan-08 18:00N 16°12' W 056°24'1211.5 070 / 241017.1 26.9 26.9
2020-Jan-08 17:00N 16°12' W 056°36'1211.5 080 / 211017.8 26.9 26.9
2020-Jan-08 16:00N 16°12' W 056°48'1211.5 090 / 201018.6 27.0 27.1
2020-Jan-08 15:00N 16°12' W 057°00'6 5.8 080 / 201019.6 26.7 27.0
2020-Jan-08 14:00N 16°12' W 057°06'1313.0 080 / 221019.9 26.7 27.0
2020-Jan-08 13:00N 16°18' W 057°18'1211.5 080 / 261020.0 26.4 27.1
2020-Jan-08 12:00N 16°18' W 057°30'6 6.0 080 / 251019.7 26.4 26.9
2020-Jan-08 11:00N 16°24' W 057°30'1211.5 080 / 241019.1 26.4 27.0
2020-Jan-08 10:00N 16°24' W 057°18'1313.0 110 / 121018.3 24.9 26.9
2020-Jan-08 09:00N 16°18' W 057°06'6 5.8 140 / 211017.7 23.9 27.0
2020-Jan-08 08:00N 16°18' W 057°00'1211.5 080 / 111017.4 23.7 27.0
2020-Jan-08 07:00N 16°18' W 056°48'1211.5 110 / 241017.4 23.4 27.0
2020-Jan-08 06:00N 16°18' W 056°36'1211.5 070 / 231017.5 25.7 26.9
2020-Jan-08 05:00N 16°18' W 056°24'6 5.8 080 / 211018.0 26.2 26.9
2020-Jan-08 04:00N 16°18' W 056°18'1211.5 080 / 211018.5 26.4 26.9
2020-Jan-08 03:00N 16°18' W 056°06'1313.0 070 / 211019.0 26.0 26.9
2020-Jan-08 02:00N 16°12' W 055°54'6 5.8 070 / 201019.1 25.9 26.9
2020-Jan-08 01:00N 16°12' W 055°48'1211.5 070 / 221019.3 26.2 26.9
2020-Jan-08 00:00N 16°12' W 055°36'1211.5 070 / 151019.0 26.2 26.9
2020-Jan-07 23:00N 16°12' W 055°24'1211.5 070 / 181018.5 26.2 26.9
2020-Jan-07 22:00N 16°12' W 055°12'6 5.8 070 / 151017.9 26.2 27.2
2020-Jan-07 21:00N 16°12' W 055°06'1211.5 070 / 131017.3 26.2 27.0
2020-Jan-07 20:00N 16°12' W 054°54'1211.5 090 / 141017.1 27.0 26.9
2020-Jan-07 19:00N 16°12' W 054°42'1313.0 080 / 141016.7 26.7 27.0
2020-Jan-07 18:00N 16°06' W 054°30'6 5.8 090 / 131016.6 26.5 26.7
2020-Jan-07 17:00N 16°06' W 054°24'1211.5 100 / 131017.0 27.7 27.0
2020-Jan-07 16:00N 16°06' W 054°12'1211.5 090 / 151017.7 26.5 27.1
2020-Jan-07 15:00N 16°06' W 054°00'6 5.8 080 / 131018.5 26.2 26.6
2020-Jan-07 14:00N 16°06' W 053°54'1211.5 090 / 141019.0 26.9 26.6
2020-Jan-07 13:00N 16°06' W 053°42'1211.5 090 / 131019.1 26.7 26.8
2020-Jan-07 12:00N 16°06' W 053°30'1211.5 100 / 131018.6 27.5 26.9
2020-Jan-07 11:00N 16°06' W 053°18'6 5.8 100 / 121017.7 25.9 26.6
2020-Jan-07 10:00N 16°06' W 053°12'1211.5 110 / 131017.0 25.4 26.6
2020-Jan-07 09:00N 16°06' W 053°00'1211.5 110 / 121016.3 25.4 26.9
2020-Jan-07 08:00N 16°06' W 052°48'8 8.3 120 / 141016.0 25.4 26.5
2020-Jan-07 07:00N 16°00' W 052°42'1211.5 110 / 121015.9 25.2 26.7
2020-Jan-07 06:00N 16°00' W 052°30'1211.5 110 / 141016.0 25.2 26.7
2020-Jan-07 05:00N 16°00' W 052°18'1211.5 110 / 131016.2 25.2 26.6
2020-Jan-07 04:00N 16°00' W 052°06'6 5.8 110 / 131016.8 25.4 26.4
2020-Jan-07 03:00N 16°00' W 052°00'1211.5 100 / 111016.9 25.2 26.5
2020-Jan-07 02:00N 16°00' W 051°48'1211.5 090 / 131017.1 25.4 26.5
2020-Jan-07 01:00N 16°00' W 051°36'1211.5 100 / 111017.2 25.4 26.3
2020-Jan-07 00:00N 16°00' W 051°24'6 5.8 090 / 121017.3 25.4 26.2
2020-Jan-06 23:00N 16°00' W 051°18'1211.5 090 / 91016.9 25.2 26.2
2020-Jan-06 22:00N 16°00' W 051°06'1211.5 090 / 101016.2 25.4 26.4
2020-Jan-06 21:00N 16°00' W 050°54'6 5.8 090 / 101015.5 25.9 26.5
2020-Jan-06 20:00N 16°00' W 050°48'1211.5 080 / 81014.9 26.9 26.4
2020-Jan-06 19:00N 16°00' W 050°36'1211.5 110 / 71014.7 27.2 26.6
2020-Jan-06 18:00N 16°00' W 050°24'1211.5 110 / 61014.4 26.2 26.7
2020-Jan-06 17:00N 16°00' W 050°12'8 8.3 120 / 71014.7 26.2 26.7
2020-Jan-06 16:00N 15°54' W 050°06'1211.5 110 / 61015.3 26.2 26.9
2020-Jan-06 15:00N 15°54' W 049°54'1211.5 130 / 61016.0 25.9 26.7
2020-Jan-06 14:00N 15°54' W 049°42'1211.5 120 / 81016.6 25.7 26.6
2020-Jan-06 13:00N 15°54' W 049°30'6 5.8 130 / 81016.9 25.7 26.0
2020-Jan-06 12:00N 15°54' W 049°24'1211.5 130 / 71016.8 26.2 26.2
2020-Jan-06 11:00N 15°54' W 049°12'1211.5 110 / 71015.9 25.2 26.1
2020-Jan-06 10:00N 15°54' W 049°00'6 5.8 080 / 51014.7 24.7 26.0
2020-Jan-06 09:00N 15°54' W 048°54'1211.5 080 / 81014.1 24.2 26.0
2020-Jan-06 08:00N 15°54' W 048°42'1313.0 100 / 101014.0 23.9 26.0
2020-Jan-06 07:00N 15°48' W 048°30'1211.5 080 / 61013.7 23.9 26.0
2020-Jan-06 06:00N 15°48' W 048°18'6 5.8 180 / 111013.7 23.7 26.0
2020-Jan-06 05:00N 15°48' W 048°12'1211.5 120 / 101014.1 24.7 26.0
2020-Jan-06 04:00N 15°48' W 048°00'1211.5 110 / 71014.7 24.5 26.3
2020-Jan-06 03:00N 15°48' W 047°48'1211.5 080 / 101015.0 24.4 26.3
2020-Jan-06 02:00N 15°48' W 047°36'6 5.8 090 / 121015.4 23.7 26.3
2020-Jan-06 01:00N 15°48' W 047°30'1211.5 090 / 111015.3 24.7 26.1
2020-Jan-06 00:00N 15°48' W 047°18'1211.5 080 / 131015.4 24.5 26.3
2020-Jan-05 23:00N 15°48' W 047°06'6 5.8 070 / 141015.0 24.4 26.3
2020-Jan-05 22:00N 15°48' W 047°00'1313.0 080 / 91014.6 24.4 26.3
2020-Jan-05 21:00N 15°42' W 046°48'1211.6 040 / 71014.1 23.2 26.2
2020-Jan-05 20:00N 15°42' W 046°36'6 5.8 100 / 101013.5 25.4 26.3
2020-Jan-05 19:00N 15°42' W 046°30'1211.6 090 / 121013.5 25.4 26.2
2020-Jan-05 18:00N 15°42' W 046°18'1211.6 080 / 111013.3 25.4 26.3
2020-Jan-05 17:00N 15°42' W 046°06'1313.0 080 / 121013.7 25.2 26.2
2020-Jan-05 16:00N 15°36' W 045°54'6 5.8 090 / 121014.5 25.4 26.1
2020-Jan-05 15:00N 15°36' W 045°48'1211.6 070 / 111015.1 24.9 26.1
2020-Jan-05 14:00N 15°36' W 045°36'1211.6 090 / 101015.8 25.0 26.2
2020-Jan-05 13:00N 15°36' W 045°24'6 5.8 080 / 91016.2 24.9 26.2
2020-Jan-05 12:00N 15°36' W 045°18'1211.6 080 / 91016.1 24.9 25.9
2020-Jan-05 11:00N 15°36' W 045°06'1211.6 070 / 61015.6 24.7 25.9
2020-Jan-05 10:00N 15°36' W 044°54'1211.6 110 / 41014.4 24.2 25.9
2020-Jan-05 09:00N 15°36' W 044°42'8 8.3 090 / 71013.7 23.7 26.0
2020-Jan-05 08:00N 15°30' W 044°36'1211.6 130 / 91013.4 23.9 26.1
2020-Jan-05 07:00N 15°30' W 044°24'1211.6 150 / 111013.2 23.7 26.1
2020-Jan-05 06:00N 15°30' W 044°12'1211.6 140 / 121013.1 23.7 25.9
2020-Jan-05 05:00N 15°30' W 044°00'6 5.8 110 / 111013.9 23.4 25.9
2020-Jan-05 04:00N 15°30' W 043°54'1211.6 100 / 131014.7 22.9 26.1
2020-Jan-05 03:00N 15°30' W 043°42'1211.6 090 / 141015.4 22.5 25.7
2020-Jan-05 02:00N 15°30' W 043°30'8 8.3 070 / 141015.9 22.0 25.8
2020-Jan-05 01:00N 15°24' W 043°24'8 8.3 050 / 161016.7 21.7 25.8
2020-Jan-05 00:00N 15°30' W 043°18'1211.6 050 / 231016.7 21.5 25.8
2020-Jan-04 23:00N 15°30' W 043°30'8 8.3 040 / 291016.1 21.5 25.8
2020-Jan-04 22:00N 15°36' W 043°36'1211.6 030 / 331015.3 21.2 25.7
2020-Jan-04 21:00N 15°36' W 043°48'1211.6 040 / 331014.6 21.4 26.1
2020-Jan-04 20:00N 15°36' W 044°00'1211.6 040 / 331014.0 21.4 25.7
2020-Jan-04 19:00N 15°36' W 044°12'6 5.8 040 / 211014.0 21.5 25.8
2020-Jan-04 18:00N 15°36' W 044°18'1211.6 180 / 101013.5 25.4 25.9
2020-Jan-04 17:00N 15°36' W 044°30'1211.6 190 / 161013.4 25.2 26.2
2020-Jan-04 16:00N 15°36' W 044°42'8 8.3 200 / 161013.9 25.5 26.2
2020-Jan-04 15:00N 15°42' W 044°48'1211.6 190 / 161015.1 25.4 26.1
2020-Jan-04 14:00N 15°42' W 045°00'1211.6 190 / 141015.8 25.5 26.0
2020-Jan-04 13:00N 15°42' W 045°12'1211.6 180 / 151016.2 25.5 26.0
2020-Jan-04 12:00N 15°42' W 045°24'6 5.8 180 / 151016.4 25.4 26.2
2020-Jan-04 11:00N 15°42' W 045°30'1211.6 160 / 141016.0 24.9 26.1
2020-Jan-04 10:00N 15°42' W 045°42'   170 / 121015.6 24.7 26.0

Dump ship's entire track history